首页
METAR-TAF:

METAR-TAF

机场 :

莫比尔, 阿拉巴马州, 美国

纬度: 30-36-50N, 经度: 088-03-48W, 海拔: 7米

当前天气观测

该预报发布于1小时和1分钟前的23:53 UTC
风速3节,风向西北
温度 9°C
湿度 81%
气压 1025 hPa
能見度: 16.1公里
阴天层高于3800英尺

METAR: KBFM 102353Z 32003KT 10SM OVC038 09/06 A3026 RMK AO2 SLP245 T00940056 10100 20067 53014

时间: 18:54 (00:54 UTC)

预报

该预报发布于1小时和29分钟前的23:25 UTC
预报有效从11日的 00点(UTC)到 11日的 24点(UTC)
风速6节,风向北转西北
能見度: 10公里
阴天层高于3500英尺
从 11日的 0300点(UTC)
风速9节,风向北转西北
能見度: 10公里
阴天层高于2800英尺
从 11日的 1200点(UTC)
风速7节,风向
能見度: 10公里
天空无云

TAF: KBFM 102325Z 1100/1124 33006KT P6SM OVC035 FM110300 33009KT P6SM OVC028 FM111200 35007KT P6SM SKC

超过4000个机场的气象观测和天气预报(METAR&TAF报告)。

可查询的气象台以黄色和红色小点在地图上表示。

将鼠标移到小点上方,可查看气象台名称。

然后点击查看天气观测和预报。

如需切换地图:点击带黑十字的绿色按钮放大地图;点击带横线的绿色按钮缩小地图;或者点击绿色箭头查看邻近地区的地图。


METAR-TAF: